createdAt,value
2019-03-17T00:02:24.990Z,14.70
2019-03-17T00:04:57.435Z,12.97
2019-03-17T00:07:30.186Z,14.07
2019-03-17T00:10:02.545Z,13.63
2019-03-17T00:12:34.976Z,12.20
2019-03-17T00:15:08.195Z,12.93
2019-03-17T00:17:41.956Z,15.87
2019-03-17T00:20:15.657Z,14.17
2019-03-17T00:22:48.095Z,14.53
2019-03-17T00:25:20.751Z,13.07
2019-03-17T00:27:53.236Z,13.87
2019-03-17T00:30:25.785Z,14.40
2019-03-17T00:32:58.632Z,13.53
2019-03-17T00:35:31.191Z,14.80
2019-03-17T00:38:03.985Z,14.70
2019-03-17T00:40:36.245Z,17.97
2019-03-17T00:43:08.520Z,19.33
2019-03-17T00:45:40.925Z,18.00
2019-03-17T00:48:13.331Z,18.77
2019-03-17T00:50:48.762Z,20.87
2019-03-17T00:53:19.930Z,17.60
2019-03-17T00:55:53.240Z,18.00
2019-03-17T00:58:25.555Z,18.00
2019-03-17T01:00:57.846Z,17.50
2019-03-17T01:03:31.312Z,16.00
2019-03-17T01:06:03.943Z,15.47
2019-03-17T01:08:36.260Z,15.40
2019-03-17T01:11:08.450Z,16.23
2019-03-17T01:13:40.759Z,16.17
2019-03-17T01:16:13.246Z,15.87
2019-03-17T01:18:46.166Z,15.47
2019-03-17T01:21:18.535Z,15.63
2019-03-17T01:23:50.691Z,14.90
2019-03-17T01:26:24.039Z,15.47
2019-03-17T01:28:56.175Z,14.83
2019-03-17T01:31:28.344Z,15.33
2019-03-17T01:34:00.542Z,15.83
2019-03-17T01:36:32.830Z,15.60
2019-03-17T01:39:06.931Z,16.43
2019-03-17T01:41:40.785Z,14.23
2019-03-17T01:44:12.990Z,14.67
2019-03-17T01:46:45.490Z,16.07
2019-03-17T01:49:17.714Z,15.90
2019-03-17T01:51:49.965Z,14.47
2019-03-17T01:54:23.211Z,15.00
2019-03-17T01:56:55.625Z,13.97
2019-03-17T01:59:27.950Z,12.93
2019-03-17T02:02:00.470Z,13.07
2019-03-17T02:04:32.905Z,12.07
2019-03-17T02:07:05.305Z,13.20
2019-03-17T02:09:37.569Z,12.23
2019-03-17T02:12:09.966Z,12.23
2019-03-17T02:14:42.420Z,11.13
2019-03-17T02:17:14.584Z,10.57
2019-03-17T02:19:46.880Z,10.80
2019-03-17T02:22:19.043Z,9.77
2019-03-17T02:24:51.313Z,8.93
2019-03-17T02:27:23.870Z,10.13
2019-03-17T02:29:56.231Z,11.30
2019-03-17T02:32:28.726Z,8.83
2019-03-17T02:35:01.050Z,8.83
2019-03-17T02:37:33.437Z,8.80
2019-03-17T02:40:07.670Z,8.27
2019-03-17T02:42:39.912Z,8.87
2019-03-17T02:45:12.361Z,7.80
2019-03-17T02:47:44.575Z,8.57
2019-03-17T02:50:16.980Z,7.70
2019-03-17T02:52:49.266Z,8.77
2019-03-17T02:55:21.445Z,8.53
2019-03-17T02:57:53.765Z,8.83
2019-03-17T03:00:26.152Z,7.70
2019-03-17T03:02:58.742Z,7.90
2019-03-17T03:05:31.256Z,6.97
2019-03-17T03:08:03.904Z,8.20
2019-03-17T03:10:35.992Z,7.63
2019-03-17T03:13:08.559Z,8.33
2019-03-17T03:15:40.972Z,7.97
2019-03-17T03:18:13.209Z,8.03
2019-03-17T03:20:45.446Z,8.40
2019-03-17T03:23:18.856Z,7.80
2019-03-17T03:25:51.226Z,8.00
2019-03-17T03:28:23.591Z,7.70
2019-03-17T03:30:55.827Z,7.27
2019-03-17T03:33:28.154Z,7.63
2019-03-17T03:36:10.647Z,8.93
2019-03-17T03:38:34.657Z,9.40
2019-03-17T03:41:07.098Z,8.60
2019-03-17T03:43:39.475Z,9.83
2019-03-17T03:46:11.752Z,9.60
2019-03-17T03:48:43.910Z,8.83
2019-03-17T03:51:15.928Z,7.30
2019-03-17T03:53:48.150Z,7.70
2019-03-17T03:56:20.506Z,7.77
2019-03-17T03:58:52.848Z,8.67
2019-03-17T04:01:25.340Z,9.00
2019-03-17T04:03:57.641Z,8.13
2019-03-17T04:06:29.787Z,7.53
2019-03-17T04:09:02.317Z,8.00
2019-03-17T04:11:34.760Z,7.37
2019-03-17T04:14:07.143Z,9.73
2019-03-17T04:16:39.367Z,11.60
2019-03-17T04:19:11.776Z,16.87
2019-03-17T04:21:44.237Z,11.43
2019-03-17T04:24:16.788Z,9.23
2019-03-17T04:26:49.110Z,9.53
2019-03-17T04:29:21.715Z,10.17
2019-03-17T04:31:54.146Z,12.77
2019-03-17T04:34:26.406Z,10.53
2019-03-17T04:36:58.803Z,11.50
2019-03-17T04:39:30.912Z,10.37
2019-03-17T04:42:03.225Z,10.10
2019-03-17T04:44:35.686Z,7.73
2019-03-17T04:47:07.965Z,7.80
2019-03-17T04:49:41.628Z,7.00
2019-03-17T04:52:13.870Z,8.63
2019-03-17T04:54:46.365Z,8.23
2019-03-17T04:57:18.490Z,11.27
2019-03-17T04:59:50.901Z,11.67
2019-03-17T05:02:23.299Z,10.73
2019-03-17T05:04:55.631Z,13.83
2019-03-17T05:07:28.066Z,12.57
2019-03-17T05:10:01.415Z,11.53
2019-03-17T05:12:33.845Z,14.20
2019-03-17T05:15:11.128Z,12.67
2019-03-17T05:17:43.510Z,8.93
2019-03-17T05:20:15.935Z,8.63
2019-03-17T05:22:48.446Z,9.77
2019-03-17T05:25:20.871Z,11.70
2019-03-17T05:27:53.210Z,13.03
2019-03-17T05:30:25.745Z,18.27
2019-03-17T05:32:57.905Z,26.80
2019-03-17T05:35:30.750Z,31.07
2019-03-17T05:38:03.120Z,54.00
2019-03-17T05:40:35.520Z,37.43
2019-03-17T05:43:07.995Z,48.87
2019-03-17T05:45:40.150Z,42.90
2019-03-17T05:48:12.524Z,33.60
2019-03-17T05:50:46.016Z,30.63
2019-03-17T05:53:19.895Z,30.27
2019-03-17T05:55:52.108Z,25.47
2019-03-17T05:58:24.494Z,31.80
2019-03-17T06:00:56.930Z,20.80
2019-03-17T06:03:29.303Z,20.23
2019-03-17T06:06:01.712Z,14.47
2019-03-17T06:08:34.091Z,12.80
2019-03-17T06:11:06.755Z,23.00
2019-03-17T06:13:39.330Z,33.43
2019-03-17T06:16:12.002Z,31.47
2019-03-17T06:18:44.470Z,32.73
2019-03-17T06:21:16.835Z,29.87
2019-03-17T06:23:49.330Z,31.33
2019-03-17T06:26:22.050Z,25.33
2019-03-17T06:28:54.226Z,29.83
2019-03-17T06:31:26.485Z,25.90
2019-03-17T06:33:58.956Z,43.50
2019-03-17T06:36:31.390Z,31.00
2019-03-17T06:39:04.230Z,21.13
2019-03-17T06:41:36.560Z,41.60
2019-03-17T06:44:08.915Z,47.63
2019-03-17T06:46:41.279Z,35.10
2019-03-17T06:49:13.655Z,29.97
2019-03-17T06:51:46.020Z,29.03
2019-03-17T06:54:18.285Z,34.60
2019-03-17T06:56:50.735Z,23.63
2019-03-17T06:59:23.061Z,15.87
2019-03-17T07:01:55.415Z,19.47
2019-03-17T07:04:28.080Z,27.10
2019-03-17T07:07:00.600Z,14.27
2019-03-17T07:09:33.200Z,15.00
2019-03-17T07:12:05.731Z,17.03
2019-03-17T07:14:38.185Z,16.77
2019-03-17T07:17:10.775Z,10.50
2019-03-17T07:19:43.096Z,10.53
2019-03-17T07:22:15.369Z,10.90
2019-03-17T07:24:48.006Z,11.67
2019-03-17T07:27:21.545Z,11.67
2019-03-17T07:29:53.961Z,7.83
2019-03-17T07:32:26.403Z,8.70
2019-03-17T07:34:59.001Z,7.77
2019-03-17T07:37:31.635Z,7.30
2019-03-17T07:40:05.160Z,6.97
2019-03-17T07:42:37.571Z,6.17
2019-03-17T07:45:11.621Z,5.73
2019-03-17T07:47:44.022Z,6.03
2019-03-17T07:50:16.335Z,8.17
2019-03-17T07:52:48.805Z,4.93
2019-03-17T07:55:21.465Z,4.70
2019-03-17T07:57:54.046Z,5.13
2019-03-17T08:00:32.255Z,5.60
2019-03-17T08:03:02.020Z,6.03
2019-03-17T08:05:34.561Z,6.03
2019-03-17T08:08:09.615Z,5.00
2019-03-17T08:10:40.740Z,4.53
2019-03-17T08:13:13.175Z,4.97
2019-03-17T08:15:45.720Z,4.90
2019-03-17T08:18:18.118Z,6.10
2019-03-17T08:20:50.813Z,13.30
2019-03-17T08:23:24.430Z,5.63
2019-03-17T08:25:56.936Z,9.60
2019-03-17T08:28:29.490Z,6.93
2019-03-17T08:31:02.136Z,8.90
2019-03-17T08:33:34.812Z,5.30
2019-03-17T08:36:07.068Z,5.07
2019-03-17T08:38:39.435Z,4.67
2019-03-17T08:41:11.966Z,13.17
2019-03-17T08:43:53.727Z,12.33
2019-03-17T08:46:18.601Z,11.17
2019-03-17T08:48:50.995Z,19.13
2019-03-17T08:51:23.612Z,4.83
2019-03-17T08:53:56.017Z,4.37
2019-03-17T08:56:28.390Z,7.03
2019-03-17T08:59:00.703Z,8.40
2019-03-17T09:01:33.186Z,9.70
2019-03-17T09:04:06.265Z,8.17
2019-03-17T09:06:38.707Z,9.17
2019-03-17T09:09:10.980Z,8.60
2019-03-17T09:11:43.380Z,7.37
2019-03-17T09:14:15.831Z,18.50
2019-03-17T09:16:48.264Z,10.87
2019-03-17T09:19:20.650Z,12.50
2019-03-17T09:21:53.221Z,8.27
2019-03-17T09:24:25.655Z,7.77
2019-03-17T09:26:58.170Z,7.87
2019-03-17T09:29:30.691Z,6.77
2019-03-17T09:32:03.025Z,5.60
2019-03-17T09:34:35.445Z,6.20
2019-03-17T09:37:07.886Z,5.70
2019-03-17T09:39:40.180Z,8.50
2019-03-17T09:42:12.584Z,6.10
2019-03-17T09:44:45.119Z,6.03
2019-03-17T09:47:17.595Z,5.07
2019-03-17T09:49:49.855Z,5.17
2019-03-17T09:52:22.339Z,4.63
2019-03-17T09:54:54.660Z,5.07
2019-03-17T09:57:26.856Z,3.87
2019-03-17T09:59:59.346Z,3.57
2019-03-17T10:02:31.852Z,3.10
2019-03-17T10:05:06.461Z,39.17
2019-03-17T10:07:39.040Z,14.90
2019-03-17T10:10:21.226Z,30.40
2019-03-17T10:12:53.551Z,26.37
2019-03-17T10:15:26.205Z,33.30
2019-03-17T10:17:58.820Z,14.03
2019-03-17T10:20:31.255Z,18.07
2019-03-17T10:23:03.572Z,40.87
2019-03-17T10:25:36.150Z,27.80
2019-03-17T10:28:08.570Z,20.20
2019-03-17T10:30:40.903Z,22.17
2019-03-17T10:33:13.350Z,48.37
2019-03-17T10:35:45.835Z,20.23
2019-03-17T10:38:18.310Z,22.23
2019-03-17T10:40:50.931Z,34.17
2019-03-17T10:43:23.795Z,27.53
2019-03-17T10:45:56.135Z,17.13
2019-03-17T10:48:28.765Z,16.97
2019-03-17T10:51:01.176Z,14.37
2019-03-17T10:53:33.640Z,22.23
2019-03-17T10:56:05.956Z,17.33
2019-03-17T10:58:38.240Z,13.43
2019-03-17T11:01:11.011Z,16.33
2019-03-17T11:03:46.612Z,11.63
2019-03-17T11:06:19.130Z,24.57
2019-03-17T11:08:51.420Z,28.50
2019-03-17T11:11:23.950Z,16.13
2019-03-17T11:13:56.490Z,11.77
2019-03-17T11:16:29.150Z,13.87
2019-03-17T11:19:01.370Z,17.47
2019-03-17T11:21:33.796Z,21.20
2019-03-17T11:24:06.190Z,15.70
2019-03-17T11:26:38.641Z,40.47
2019-03-17T11:29:11.140Z,23.13
2019-03-17T11:31:43.687Z,15.00
2019-03-17T11:34:16.240Z,16.33
2019-03-17T11:36:48.768Z,26.87
2019-03-17T11:39:21.095Z,11.90
2019-03-17T11:41:53.800Z,8.03
2019-03-17T11:44:26.266Z,18.35
2019-03-17T11:46:58.500Z,8.83
2019-03-17T11:49:31.090Z,16.30
2019-03-17T11:52:03.521Z,11.18
2019-03-17T11:54:35.790Z,9.28
2019-03-17T11:57:08.380Z,8.13
2019-03-17T11:59:40.825Z,7.35
2019-03-17T12:02:25.761Z,3.95
2019-03-17T12:04:47.731Z,12.00
2019-03-17T12:07:20.191Z,9.30
2019-03-17T12:09:52.481Z,11.35
2019-03-17T12:12:24.860Z,9.90
2019-03-17T12:14:57.651Z,6.58
2019-03-17T12:17:30.101Z,9.00
2019-03-17T12:20:02.869Z,9.73
2019-03-17T12:22:36.181Z,5.97
2019-03-17T12:25:14.393Z,7.80
2019-03-17T12:27:46.930Z,9.25
2019-03-17T12:30:30.125Z,14.40
2019-03-17T12:33:02.528Z,10.53
2019-03-17T12:35:35.079Z,18.20
2019-03-17T12:38:07.803Z,10.80
2019-03-17T12:40:40.070Z,8.70
2019-03-17T12:43:12.657Z,6.22
2019-03-17T12:45:45.116Z,11.57
2019-03-17T12:48:17.680Z,10.60
2019-03-17T12:50:49.852Z,11.55
2019-03-17T12:53:22.179Z,5.50
2019-03-17T12:55:54.693Z,5.25
2019-03-17T12:58:27.245Z,7.75
2019-03-17T13:00:59.670Z,5.47
2019-03-17T13:03:32.615Z,4.60
2019-03-17T13:06:04.996Z,4.85
2019-03-17T13:08:37.492Z,5.35
2019-03-17T13:11:11.015Z,6.90
2019-03-17T13:13:43.457Z,3.90
2019-03-17T13:16:15.953Z,2.75
2019-03-17T13:18:48.080Z,3.80
2019-03-17T13:21:20.255Z,3.72
2019-03-17T13:23:52.946Z,3.73
2019-03-17T13:26:25.451Z,2.85
2019-03-17T13:28:58.086Z,2.60
2019-03-17T13:31:30.447Z,2.30
2019-03-17T13:34:02.789Z,2.60
2019-03-17T13:36:35.315Z,3.83
2019-03-17T13:39:08.210Z,2.37
2019-03-17T13:41:40.464Z,2.60
2019-03-17T13:44:13.155Z,3.08
2019-03-17T13:46:45.595Z,2.03
2019-03-17T13:49:18.117Z,2.20
2019-03-17T13:51:50.915Z,2.95
2019-03-17T13:54:23.266Z,3.70
2019-03-17T13:56:55.660Z,9.03
2019-03-17T13:59:27.996Z,3.70
2019-03-17T14:02:00.515Z,7.87
2019-03-17T14:04:32.896Z,4.65
2019-03-17T14:07:06.435Z,4.50
2019-03-17T14:09:38.860Z,2.70
2019-03-17T14:12:11.185Z,5.10
2019-03-17T14:14:43.431Z,7.03
2019-03-17T14:17:15.748Z,4.03
2019-03-17T14:19:48.250Z,2.00
2019-03-17T14:22:20.330Z,2.93
2019-03-17T14:24:52.805Z,3.60
2019-03-17T14:27:25.165Z,3.40
2019-03-17T14:29:57.677Z,4.58
2019-03-17T14:32:29.895Z,2.70
2019-03-17T14:35:02.230Z,4.17
2019-03-17T14:37:34.616Z,2.85
2019-03-17T14:40:13.435Z,2.95
2019-03-17T14:42:48.975Z,3.27
2019-03-17T14:45:21.470Z,3.42
2019-03-17T14:47:53.909Z,2.80
2019-03-17T14:50:26.488Z,3.00
2019-03-17T14:53:00.874Z,3.13
2019-03-17T14:55:33.096Z,3.47
2019-03-17T14:58:05.690Z,4.90
2019-03-17T15:00:38.162Z,4.87
2019-03-17T15:03:10.632Z,5.13
2019-03-17T15:05:43.185Z,4.00
2019-03-17T15:08:15.640Z,5.87
2019-03-17T15:10:48.086Z,3.37
2019-03-17T15:13:20.406Z,4.17
2019-03-17T15:16:02.386Z,4.97
2019-03-17T15:18:26.919Z,2.93
2019-03-17T15:20:59.500Z,5.20
2019-03-17T15:23:32.745Z,5.27
2019-03-17T15:26:05.128Z,4.20
2019-03-17T15:28:37.593Z,5.60
2019-03-17T15:31:12.033Z,3.87
2019-03-17T15:33:44.055Z,3.30
2019-03-17T15:36:16.360Z,10.70
2019-03-17T15:38:48.873Z,4.80
2019-03-17T15:41:21.381Z,6.00
2019-03-17T15:43:54.032Z,6.80
2019-03-17T15:46:26.321Z,34.93
2019-03-17T15:48:58.625Z,67.13
2019-03-17T15:51:30.885Z,48.63
2019-03-17T15:54:03.215Z,32.80
2019-03-17T15:56:35.425Z,28.70
2019-03-17T15:59:07.560Z,28.47
2019-03-17T16:01:39.935Z,37.13
2019-03-17T16:04:12.185Z,63.47
2019-03-17T16:06:44.675Z,58.50
2019-03-17T16:09:17.091Z,56.17
2019-03-17T16:11:49.815Z,33.50
2019-03-17T16:14:22.190Z,48.23
2019-03-17T16:16:54.640Z,44.17
2019-03-17T16:19:27.034Z,53.67
2019-03-17T16:21:59.611Z,29.93
2019-03-17T16:24:32.040Z,41.10
2019-03-17T16:27:04.536Z,53.80
2019-03-17T16:29:36.885Z,43.13
2019-03-17T16:32:09.545Z,55.87
2019-03-17T16:34:41.855Z,29.97
2019-03-17T16:37:14.535Z,41.63
2019-03-17T16:39:47.061Z,23.97
2019-03-17T16:42:19.510Z,21.50
2019-03-17T16:44:52.107Z,28.80
2019-03-17T16:47:24.581Z,23.97
2019-03-17T16:49:59.095Z,25.07
2019-03-17T16:52:31.733Z,23.30
2019-03-17T16:55:05.913Z,26.97
2019-03-17T16:57:39.431Z,36.93
2019-03-17T17:00:23.684Z,29.30
2019-03-17T17:02:56.350Z,29.43
2019-03-17T17:05:28.866Z,21.63
2019-03-17T17:08:01.180Z,13.87
2019-03-17T17:10:33.371Z,8.37
2019-03-17T17:13:05.787Z,12.40
2019-03-17T17:15:38.348Z,12.47
2019-03-17T17:18:10.835Z,25.67
2019-03-17T17:20:43.690Z,16.10
2019-03-17T17:23:15.945Z,7.03
2019-03-17T17:25:48.541Z,5.80
2019-03-17T17:28:20.940Z,4.60
2019-03-17T17:30:53.486Z,5.63
2019-03-17T17:33:27.914Z,8.53
2019-03-17T17:35:59.710Z,8.33
2019-03-17T17:38:32.211Z,4.97
2019-03-17T17:41:04.497Z,3.57
2019-03-17T17:43:36.960Z,6.33
2019-03-17T17:46:09.497Z,6.30
2019-03-17T17:48:41.961Z,5.40
2019-03-17T17:51:14.485Z,7.33
2019-03-17T17:53:47.430Z,8.10
2019-03-17T17:56:20.015Z,6.00
2019-03-17T17:58:52.360Z,5.47
2019-03-17T18:01:24.765Z,5.00
2019-03-17T18:03:57.296Z,6.13
2019-03-17T18:06:29.642Z,4.17
2019-03-17T18:09:02.145Z,4.43
2019-03-17T18:11:34.565Z,3.90
2019-03-17T18:14:06.965Z,4.27
2019-03-17T18:16:41.735Z,4.50
2019-03-17T18:19:14.440Z,4.40
2019-03-17T18:21:46.876Z,7.30
2019-03-17T18:24:19.435Z,5.50
2019-03-17T18:26:51.796Z,8.47
2019-03-17T18:29:23.926Z,9.40
2019-03-17T18:31:56.450Z,7.23
2019-03-17T18:34:28.775Z,10.37
2019-03-17T18:37:01.317Z,37.50
2019-03-17T18:39:34.612Z,12.27
2019-03-17T18:42:06.951Z,14.53
2019-03-17T18:44:39.235Z,16.10
2019-03-17T18:47:12.068Z,19.87
2019-03-17T18:49:44.347Z,13.00
2019-03-17T18:52:16.781Z,14.57
2019-03-17T18:54:48.874Z,15.50
2019-03-17T18:57:21.472Z,17.23
2019-03-17T18:59:53.852Z,46.10
2019-03-17T19:02:26.395Z,47.57
2019-03-17T19:04:58.911Z,46.10
2019-03-17T19:07:31.465Z,44.83
2019-03-17T19:10:04.395Z,36.03
2019-03-17T19:12:45.497Z,49.23
2019-03-17T19:15:19.860Z,26.10
2019-03-17T19:17:52.433Z,53.37
2019-03-17T19:20:25.235Z,73.43
2019-03-17T19:22:57.580Z,60.23
2019-03-17T19:25:30.055Z,42.23
2019-03-17T19:28:02.590Z,26.17
2019-03-17T19:30:35.100Z,43.57
2019-03-17T19:33:07.540Z,40.10
2019-03-17T19:35:40.070Z,41.57
2019-03-17T19:38:12.445Z,31.57
2019-03-17T19:40:44.759Z,38.57
2019-03-17T19:43:17.395Z,39.17
2019-03-17T19:45:50.033Z,71.63
2019-03-17T19:48:22.535Z,44.63
2019-03-17T19:50:56.086Z,46.97
2019-03-17T19:53:28.505Z,36.47
2019-03-17T19:56:00.906Z,18.33
2019-03-17T19:58:33.255Z,22.87
2019-03-17T20:01:05.630Z,21.80
2019-03-17T20:03:37.865Z,19.33
2019-03-17T20:06:10.745Z,17.33
2019-03-17T20:08:43.452Z,17.37
2019-03-17T20:11:15.977Z,17.13
2019-03-17T20:13:48.291Z,18.43
2019-03-17T20:16:20.525Z,19.10
2019-03-17T20:18:52.856Z,25.20
2019-03-17T20:21:25.347Z,39.90
2019-03-17T20:23:57.695Z,25.53
2019-03-17T20:26:29.905Z,17.93
2019-03-17T20:29:03.517Z,19.50
2019-03-17T20:31:36.135Z,34.77
2019-03-17T20:34:08.867Z,23.33
2019-03-17T20:36:41.400Z,18.47
2019-03-17T20:39:13.905Z,17.43
2019-03-17T20:41:46.243Z,15.27
2019-03-17T20:44:18.953Z,19.40
2019-03-17T20:46:51.274Z,17.17
2019-03-17T20:49:23.855Z,11.90
2019-03-17T20:51:56.635Z,13.33
2019-03-17T20:54:28.875Z,10.17
2019-03-17T20:57:01.191Z,10.37
2019-03-17T20:59:33.336Z,9.50
2019-03-17T21:02:05.790Z,12.93
2019-03-17T21:04:38.439Z,9.23
2019-03-17T21:07:11.205Z,12.23
2019-03-17T21:09:43.745Z,13.67
2019-03-17T21:12:17.462Z,13.50
2019-03-17T21:14:50.156Z,14.87
2019-03-17T21:17:22.625Z,14.93
2019-03-17T21:19:55.244Z,13.90
2019-03-17T21:22:27.579Z,16.60
2019-03-17T21:25:00.000Z,15.63
2019-03-17T21:27:32.412Z,14.67
2019-03-17T21:30:07.551Z,11.53
2019-03-17T21:32:39.785Z,9.93
2019-03-17T21:35:12.326Z,8.97
2019-03-17T21:37:45.940Z,11.60
2019-03-17T21:40:18.460Z,9.83
2019-03-17T21:42:50.734Z,11.20
2019-03-17T21:45:23.085Z,12.50
2019-03-17T21:47:55.287Z,15.13
2019-03-17T21:50:27.702Z,15.90
2019-03-17T21:52:59.993Z,11.80
2019-03-17T21:55:32.180Z,10.60
2019-03-17T21:58:07.995Z,17.93
2019-03-17T22:00:38.760Z,18.77
2019-03-17T22:03:14.272Z,20.23
2019-03-17T22:05:46.860Z,26.23
2019-03-17T22:08:19.255Z,16.90
2019-03-17T22:10:52.641Z,23.13
2019-03-17T22:13:24.930Z,16.40
2019-03-17T22:15:58.770Z,17.50
2019-03-17T22:18:31.026Z,16.57
2019-03-17T22:21:03.340Z,13.07
2019-03-17T22:23:35.945Z,9.47
2019-03-17T22:26:08.525Z,9.03
2019-03-17T22:28:41.040Z,7.30
2019-03-17T22:31:13.411Z,148.33
2019-03-17T22:33:45.945Z,110.30
2019-03-17T22:36:18.576Z,40.50
2019-03-17T22:38:51.901Z,55.00
2019-03-17T22:41:24.255Z,47.67
2019-03-17T22:43:56.675Z,62.40
2019-03-17T22:46:29.100Z,44.90
2019-03-17T22:49:01.505Z,34.50
2019-03-17T22:51:34.100Z,36.07
2019-03-17T22:54:06.485Z,25.03
2019-03-17T22:56:38.967Z,35.30
2019-03-17T22:59:11.200Z,31.90
2019-03-17T23:01:43.646Z,30.23
2019-03-17T23:04:15.965Z,34.40
2019-03-17T23:06:48.245Z,31.27
2019-03-17T23:09:20.701Z,32.43
2019-03-17T23:11:53.020Z,27.50
2019-03-17T23:14:36.225Z,34.57
2019-03-17T23:16:59.447Z,27.13
2019-03-17T23:19:31.850Z,16.57
2019-03-17T23:22:04.393Z,15.77
2019-03-17T23:24:36.741Z,12.70
2019-03-17T23:27:08.805Z,20.43
2019-03-17T23:29:41.380Z,31.17
2019-03-17T23:32:13.785Z,27.17
2019-03-17T23:34:46.390Z,21.50
2019-03-17T23:37:18.750Z,32.27
2019-03-17T23:39:51.300Z,12.90
2019-03-17T23:42:23.965Z,33.97
2019-03-17T23:44:56.470Z,26.67
2019-03-17T23:47:28.871Z,16.27
2019-03-17T23:50:02.227Z,16.40
2019-03-17T23:52:34.915Z,22.93
2019-03-17T23:55:10.340Z,12.07
2019-03-17T23:57:42.687Z,13.73
